Underkhaan, Mongolia
Current Conditions -  °F | °C
As of 11:30 PM on Wednesday 22 Oct 2014 (Local Time) from ZMUB Reporting Station
Clear Clear  
Wind Chill: 25°   Ceiling: Unl
Heat Index: 25°   Visibility: 6mi
Dew Point: 18°   Wind: 2mph
Humidity: 74%   Direction: NA
Pressure: 29.91"   Gusts: NA
Location:  47.32°N, 110.63°E
Report Text: ZMUB 221530Z VRB01MPS CAVOK M04/M08 Q1013 NOSIG RMK QFE652.6 69
Loading
Personal Weather Stations






























Interactive Weather Map
Tropical Storm Tracking
New forecast layout! Learn more

10-Day Weather Forecast

Advertisements
Track Severe Weather on mobile